Time;durP1;ratioP1;P1;durP2;ratioP2;P2;SDS_P1;SDS_P2;PMS_P1;PMS_P2;Temp;Humidity;BMP_temperature;BMP_pressure;BME280_temperature;BME280_humidity;BME280_pressure;Samples;Min_cycle;Max_cycle;Signal;HPM_P1;HPM_P2
2021/01/15 00:01:32;;;;;;;13.43;8.93;;;;;;;18.22;26.60;99946.91;5037776;28;20049;-57
2021/01/15 00:03:58;;;;;;;12.90;8.02;;;;;;;18.23;26.65;99953.88;5041947;28;20047;-56
2021/01/15 00:06:25;;;;;;;13.23;8.27;;;;;;;18.20;26.48;99948.81;5039581;28;20054;-57
2021/01/15 00:08:53;;;;;;;13.90;8.30;;;;;;;18.17;26.67;99959.66;5041271;28;20048;-52
2021/01/15 00:11:23;;;;;;;13.65;8.18;;;;;;;18.16;26.63;99966.78;5039073;28;20049;-55
2021/01/15 00:13:50;;;;;;;12.18;7.63;;;;;;;18.21;26.43;99961.13;5050493;28;20626;-51
2021/01/15 00:16:20;;;;;;;11.63;7.40;;;;;;;18.15;26.60;99972.19;5040273;28;20046;-55
2021/01/15 00:18:46;;;;;;;10.05;6.82;;;;;;;18.10;26.33;99969.00;5046940;28;20443;-53
2021/01/15 00:21:19;;;;;;;10.40;6.65;;;;;;;18.02;26.12;99972.25;5046694;28;20049;-52
2021/01/15 00:23:45;;;;;;;8.93;6.10;;;;;;;17.96;26.30;99975.34;5047238;28;20067;-55
2021/01/15 00:26:15;;;;;;;9.18;6.25;;;;;;;17.93;26.32;99973.78;5038707;28;20073;-56
2021/01/15 00:28:42;;;;;;;9.32;6.00;;;;;;;17.93;25.65;99976.44;5044477;28;20056;-53
2021/01/15 00:31:08;;;;;;;8.63;5.38;;;;;;;17.89;25.95;99971.44;5047549;28;20049;-53
2021/01/15 00:33:34;;;;;;;8.00;5.50;;;;;;;17.85;26.10;99972.63;5045703;28;20059;-55
2021/01/15 00:36:01;;;;;;;7.88;5.72;;;;;;;17.82;25.84;99976.34;5043157;28;20045;-53
2021/01/15 00:38:27;;;;;;;8.30;5.45;;;;;;;17.80;25.82;99986.22;5045162;28;20501;-55
2021/01/15 00:40:57;;;;;;;9.32;6.07;;;;;;;17.78;25.82;99980.19;5046068;28;20129;-61
2021/01/15 00:43:23;;;;;;;7.35;4.65;;;;;;;17.81;25.91;99987.91;5041690;28;20401;-52
2021/01/15 00:45:50;;;;;;;7.63;5.25;;;;;;;17.73;25.56;99994.75;5044764;28;20381;-54
2021/01/15 00:48:16;;;;;;;7.65;5.30;;;;;;;17.62;25.84;99998.97;5047994;28;20163;-53
2021/01/15 00:50:42;;;;;;;7.65;5.05;;;;;;;17.57;25.86;100001.09;5047902;28;20405;-53
2021/01/15 00:53:08;;;;;;;6.93;4.75;;;;;;;17.50;25.73;100006.97;5042072;28;20460;-56
2021/01/15 00:55:34;;;;;;;7.32;5.45;;;;;;;17.52;26.37;99999.75;5043316;28;20481;-60
2021/01/15 00:58:02;;;;;;;8.57;5.53;;;;;;;17.85;26.34;100002.63;5040396;28;20048;-61
2021/01/15 01:00:28;;;;;;;7.40;4.65;;;;;;;18.26;26.63;100004.91;5049877;28;20381;-59
2021/01/15 01:02:56;;;;;;;6.97;4.53;;;;;;;18.63;26.54;100002.22;5036923;28;20065;-60
2021/01/15 01:05:22;;;;;;;7.82;4.55;;;;;;;18.96;26.47;100001.47;5038144;28;20425;-59
2021/01/15 01:07:48;;;;;;;8.48;4.30;;;;;;;19.28;26.45;100006.06;5052317;28;20496;-59
2021/01/15 01:10:14;;;;;;;6.63;4.78;;;;;;;19.52;26.87;100009.44;5044614;28;20049;-59
2021/01/15 01:12:41;;;;;;;7.40;4.57;;;;;;;19.76;26.54;100012.00;5036452;28;20136;-60
2021/01/15 01:15:09;;;;;;;6.93;4.65;;;;;;;19.97;26.66;100014.75;5036244;28;20065;-60
2021/01/15 01:17:35;;;;;;;7.68;4.60;;;;;;;20.18;26.78;100012.16;5044734;28;20053;-59
2021/01/15 01:20:02;;;;;;;5.63;3.95;;;;;;;20.36;26.85;100021.28;5044384;28;20057;-60
2021/01/15 01:22:28;;;;;;;6.38;4.40;;;;;;;20.53;26.99;100018.09;5035487;28;20064;-60
2021/01/15 01:24:54;;;;;;;8.57;4.78;;;;;;;20.70;26.91;100030.03;5046281;28;20098;-60
2021/01/15 01:27:20;;;;;;;6.88;4.40;;;;;;;20.82;27.35;100026.34;5036373;28;20098;-59
2021/01/15 01:29:46;;;;;;;6.50;4.32;;;;;;;20.96;27.22;100036.66;5051327;28;20040;-60
2021/01/15 01:32:12;;;;;;;6.22;4.07;;;;;;;21.07;27.26;100034.91;5044487;28;20042;-59
2021/01/15 01:34:38;;;;;;;6.07;4.25;;;;;;;21.16;27.21;100034.94;5044870;28;20110;-59
2021/01/15 01:37:06;;;;;;;5.53;3.90;;;;;;;21.27;27.35;100029.59;5042136;28;20049;-59
2021/01/15 01:39:32;;;;;;;6.38;4.05;;;;;;;21.43;27.50;100036.25;5045995;28;20040;-59
2021/01/15 01:41:58;;;;;;;7.22;4.05;;;;;;;21.57;27.33;100033.22;5039822;28;20068;-59
2021/01/15 01:44:24;;;;;;;5.72;4.10;;;;;;;21.70;27.37;100030.34;5043629;28;20045;-59
2021/01/15 01:46:51;;;;;;;7.13;4.85;;;;;;;21.81;27.18;100032.88;5039789;28;20044;-59
2021/01/15 01:49:17;;;;;;;5.07;3.75;;;;;;;21.94;27.15;100043.31;5036022;28;20496;-58
2021/01/15 01:51:45;;;;;;;5.80;4.22;;;;;;;22.04;26.97;100045.06;5043971;28;20504;-59
2021/01/15 01:54:12;;;;;;;5.75;3.78;;;;;;;22.12;27.29;100045.22;5035914;28;20041;-59
2021/01/15 01:56:39;;;;;;;4.53;3.50;;;;;;;22.19;27.36;100043.69;5036760;28;20126;-63
2021/01/15 01:59:07;;;;;;;6.63;3.92;;;;;;;22.28;27.47;100065.19;5039776;28;20045;-60
2021/01/15 02:01:33;;;;;;;6.25;3.90;;;;;;;22.29;27.77;100066.91;5043816;28;20506;-60
2021/01/15 02:04:00;;;;;;;5.47;3.95;;;;;;;22.29;27.60;100072.25;5032017;28;20048;-60
2021/01/15 02:06:27;;;;;;;5.07;3.65;;;;;;;22.29;27.90;100075.78;5033827;28;20056;-62
2021/01/15 02:08:54;;;;;;;4.90;3.30;;;;;;;22.30;27.88;100079.28;5044028;28;20451;-62
2021/01/15 02:11:31;;;;;;;4.68;3.35;;;;;;;22.29;28.01;100085.59;5038902;28;20067;-62
2021/01/15 02:14:05;;;;;;;4.85;3.55;;;;;;;22.30;28.25;100084.63;5044773;28;20041;-62
2021/01/15 02:16:32;;;;;;;5.55;3.80;;;;;;;22.31;28.33;100088.97;5035467;28;20054;-63
2021/01/15 02:19:13;;;;;;;6.68;3.95;;;;;;;22.30;28.18;100093.47;5043801;28;20049;-62
2021/01/15 02:22:05;;;;;;;5.65;3.40;;;;;;;22.33;28.54;100100.38;5035073;28;20110;-63
2021/01/15 02:24:50;;;;;;;5.63;3.60;;;;;;;22.34;28.47;100094.03;5037300;28;20049;-63
2021/01/15 02:27:43;;;;;;;5.15;3.53;;;;;;;22.35;28.77;100107.25;5043876;28;20045;-63
2021/01/15 02:30:23;;;;;;;4.90;3.78;;;;;;;22.35;29.10;100109.09;5039812;28;20050;-62
2021/01/15 02:32:57;;;;;;;6.25;3.42;;;;;;;22.37;29.10;100107.13;5039928;28;20045;-61
2021/01/15 02:35:33;;;;;;;5.63;3.67;;;;;;;22.39;28.66;100100.66;5038486;28;20459;-60
2021/01/15 02:38:21;;;;;;;6.25;4.22;;;;;;;22.42;28.96;100110.22;5043191;28;20049;-60
2021/01/15 02:41:00;;;;;;;5.70;3.63;;;;;;;22.42;28.99;100102.19;5038598;28;20044;-61
2021/01/15 02:43:27;;;;;;;4.78;3.80;;;;;;;22.43;28.95;100104.72;5041955;28;20056;-60
2021/01/15 02:45:55;;;;;;;6.43;3.90;;;;;;;22.45;29.10;100107.25;5044061;28;20045;-60
2021/01/15 02:48:26;;;;;;;4.90;3.22;;;;;;;22.46;28.94;100109.78;5042514;28;20056;-60
2021/01/15 02:50:52;;;;;;;5.10;3.65;;;;;;;22.49;29.06;100116.72;5035743;28;20393;-60
2021/01/15 02:53:18;;;;;;;4.72;3.70;;;;;;;22.49;29.34;100114.88;5037411;28;20061;-60
2021/01/15 02:55:45;;;;;;;5.47;3.53;;;;;;;22.51;29.12;100114.75;5042365;28;20037;-60
2021/01/15 02:58:12;;;;;;;4.30;3.13;;;;;;;22.53;29.45;100115.44;5038607;28;20063;-60
2021/01/15 03:00:38;;;;;;;4.85;3.40;;;;;;;22.55;29.21;100121.50;5043507;28;20053;-60
2021/01/15 03:03:14;;;;;;;5.32;4.03;;;;;;;22.55;29.38;100123.31;5044024;28;20090;-60
2021/01/15 03:05:46;;;;;;;5.35;3.47;;;;;;;22.54;29.33;100119.81;5042107;28;20053;-60
2021/01/15 03:08:14;;;;;;;5.28;3.33;;;;;;;22.57;29.45;100124.88;5041413;28;20056;-60
2021/01/15 03:10:41;;;;;;;4.60;3.45;;;;;;;22.59;29.25;100133.59;5041211;28;20042;-60
2021/01/15 03:13:09;;;;;;;5.07;3.13;;;;;;;22.61;29.29;100133.44;5038519;28;20386;-60
2021/01/15 03:15:38;;;;;;;4.68;3.28;;;;;;;22.61;29.49;100120.94;5038743;28;20151;-59
2021/01/15 03:18:06;;;;;;;4.70;3.38;;;;;;;22.62;29.39;100127.97;5032791;28;20547;-61
2021/01/15 03:20:32;;;;;;;4.18;3.05;;;;;;;22.63;29.84;100126.97;5043942;28;20045;-59
2021/01/15 03:22:59;;;;;;;5.28;3.75;;;;;;;22.65;29.60;100132.19;5047786;28;20569;-59
2021/01/15 03:25:25;;;;;;;4.38;3.25;;;;;;;22.66;29.60;100142.72;5041600;28;20045;-60
2021/01/15 03:27:52;;;;;;;5.68;3.88;;;;;;;22.67;29.77;100138.22;5046797;28;20044;-60
2021/01/15 03:30:20;;;;;;;4.38;3.33;;;;;;;22.67;29.73;100132.88;5043918;28;20095;-60
2021/01/15 03:32:48;;;;;;;4.25;3.45;;;;;;;22.67;29.92;100132.88;5048426;28;20386;-60
2021/01/15 03:35:24;;;;;;;4.47;3.20;;;;;;;22.69;29.90;100139.78;5042501;28;20045;-60
2021/01/15 03:37:57;;;;;;;4.45;2.92;;;;;;;22.69;29.88;100137.09;5046430;28;20044;-60
2021/01/15 03:40:25;;;;;;;5.70;3.80;;;;;;;22.70;30.11;100144.16;5043403;28;20132;-60
2021/01/15 03:42:51;;;;;;;5.47;3.70;;;;;;;22.72;30.07;100152.03;5038085;28;20041;-60
2021/01/15 03:45:18;;;;;;;4.97;3.30;;;;;;;22.72;29.88;100152.88;5045278;28;20041;-59
2021/01/15 03:47:44;;;;;;;5.00;3.33;;;;;;;22.72;30.07;100158.22;5039837;28;20447;-60
2021/01/15 03:50:11;;;;;;;4.07;3.30;;;;;;;22.73;30.06;100143.88;5048529;28;20045;-60
2021/01/15 03:52:38;;;;;;;6.07;4.20;;;;;;;22.76;29.97;100162.31;5044299;28;20049;-60
2021/01/15 03:55:05;;;;;;;6.10;3.90;;;;;;;22.75;30.34;100152.59;5046621;28;20127;-60
2021/01/15 03:57:32;;;;;;;5.13;3.50;;;;;;;22.77;30.24;100163.16;5038179;28;20100;-60
2021/01/15 03:59:58;;;;;;;4.63;3.17;;;;;;;22.78;30.09;100151.47;5051759;28;20082;-60
2021/01/15 04:02:24;;;;;;;4.53;3.40;;;;;;;22.79;30.33;100145.97;5044192;28;20047;-60
2021/01/15 04:04:51;;;;;;;5.07;3.55;;;;;;;22.79;30.41;100143.31;5048055;28;20049;-60
2021/01/15 04:07:17;;;;;;;5.20;3.55;;;;;;;22.80;30.51;100144.16;5044295;28;20049;-60
2021/01/15 04:09:44;;;;;;;5.03;3.50;;;;;;;22.83;30.62;100127.03;5055543;28;20067;-59
2021/01/15 04:12:10;;;;;;;4.55;3.15;;;;;;;22.81;30.25;100125.34;5053506;28;20051;-59
2021/01/15 04:14:37;;;;;;;4.85;3.53;;;;;;;22.82;30.65;100120.84;5053246;28;20045;-59
2021/01/15 04:17:04;;;;;;;6.35;4.32;;;;;;;22.83;30.53;100116.34;5053855;28;20049;-51
2021/01/15 04:19:30;;;;;;;5.07;3.80;;;;;;;22.83;30.61;100105.63;5055259;28;20045;-52
2021/01/15 04:21:56;;;;;;;6.47;3.67;;;;;;;22.83;30.40;100105.63;5055071;28;20049;-53
2021/01/15 04:24:23;;;;;;;5.88;3.80;;;;;;;22.83;30.45;100103.81;5055180;28;20105;-51
2021/01/15 04:26:51;;;;;;;5.82;3.75;;;;;;;22.83;30.74;100098.47;5055219;28;20061;-51
2021/01/15 04:29:18;;;;;;;6.03;3.90;;;;;;;22.85;30.67;100083.13;5054749;28;20052;-54
2021/01/15 04:31:45;;;;;;;6.60;3.70;;;;;;;22.83;30.69;100079.75;5035205;28;20048;-54
2021/01/15 04:34:11;;;;;;;6.18;3.95;;;;;;;22.84;30.95;100078.78;5037470;28;20041;-53
2021/01/15 04:36:37;;;;;;;6.78;4.00;;;;;;;22.86;30.73;100075.94;5044360;28;20059;-53
2021/01/15 04:39:04;;;;;;;6.55;3.90;;;;;;;22.84;30.87;100075.25;5045351;28;20050;-50
2021/01/15 04:41:31;;;;;;;5.55;4.00;;;;;;;22.84;30.85;100075.25;5034860;28;20051;-53
2021/01/15 04:43:58;;;;;;;5.60;4.15;;;;;;;22.85;30.86;100068.91;5034908;28;20041;-52
2021/01/15 04:46:25;;;;;;;6.15;4.40;;;;;;;22.87;30.99;100080.31;5034793;28;20055;-52
2021/01/15 04:48:53;;;;;;;6.10;4.28;;;;;;;22.85;30.89;100075.13;5034751;28;20049;-54
2021/01/15 04:51:21;;;;;;;6.00;4.38;;;;;;;22.87;30.85;100083.00;5034727;28;20049;-54
2021/01/15 04:53:55;;;;;;;7.20;4.60;;;;;;;22.85;31.17;100088.47;5034360;28;20391;-52
2021/01/15 04:56:30;;;;;;;5.85;4.15;;;;;;;22.86;30.91;100094.66;5034556;28;20046;-54
2021/01/15 04:59:01;;;;;;;5.63;4.47;;;;;;;22.86;31.27;100100.00;5033712;28;20053;-51
2021/01/15 05:01:35;;;;;;;7.38;4.55;;;;;;;22.91;31.11;100100.47;5034522;28;20049;-51
2021/01/15 05:04:05;;;;;;;8.00;4.82;;;;;;;22.98;30.83;100109.59;5034338;28;20523;-51
2021/01/15 05:06:42;;;;;;;;;;;;;;;23.13;30.77;100110.84;5034672;28;20041;-52
2021/01/15 05:09:12;;;;;;;7.18;4.88;;;;;;;23.07;31.10;100104.22;5034317;28;19927;-51
2021/01/15 05:11:38;;;;;;;6.93;4.65;;;;;;;23.11;30.90;100113.66;5033089;28;20049;-54
2021/01/15 05:14:08;;;;;;;7.50;4.90;;;;;;;23.15;30.83;100111.53;5037197;28;20045;-55
2021/01/15 05:16:37;;;;;;;7.50;4.70;;;;;;;23.18;30.99;100121.13;5042147;28;20061;-52
2021/01/15 05:19:04;;;;;;;7.80;4.82;;;;;;;23.15;30.90;100119.56;5045781;28;20053;-54
2021/01/15 05:21:31;;;;;;;7.72;4.50;;;;;;;23.12;31.33;100117.19;5034641;28;20045;-55
2021/01/15 05:23:57;;;;;;;9.80;5.30;;;;;;;23.10;31.03;100127.16;5053574;28;20041;-53
2021/01/15 05:26:25;;;;;;;7.90;4.90;;;;;;;23.08;31.22;100123.78;5053855;28;20057;-57
2021/01/15 05:28:52;;;;;;;8.50;5.60;;;;;;;23.08;31.26;100131.81;5053770;28;20045;-58
2021/01/15 05:31:18;;;;;;;8.45;5.70;;;;;;;23.09;31.07;100146.84;5053380;28;20041;-54
2021/01/15 05:34:05;;;;;;;10.00;5.50;;;;;;;23.08;31.31;100153.19;5052342;28;20060;-54
2021/01/15 05:36:34;;;;;;;6.72;5.07;;;;;;;23.09;31.24;100146.84;5054094;28;20049;-53
2021/01/15 05:39:12;;;;;;;8.13;5.00;;;;;;;23.11;31.22;100160.91;5053045;28;20045;-52
2021/01/15 05:41:38;;;;;;;7.50;5.25;;;;;;;23.17;31.24;100164.88;5053565;28;20136;-56
2021/01/15 05:44:05;;;;;;;8.30;5.50;;;;;;;23.17;31.40;100154.19;5053254;28;20045;-56
2021/01/15 05:46:32;;;;;;;8.45;5.47;;;;;;;23.22;31.38;100163.47;5052893;28;20041;-53
2021/01/15 05:49:09;;;;;;;8.15;5.32;;;;;;;23.28;31.21;100159.38;5053322;28;20048;-53
2021/01/15 05:51:36;;;;;;;8.25;5.35;;;;;;;23.34;31.05;100157.00;5051470;28;20040;-51
2021/01/15 05:54:04;;;;;;;8.50;5.75;;;;;;;23.38;31.02;100169.09;5052626;28;20059;-56
2021/01/15 05:56:44;;;;;;;7.72;4.78;;;;;;;23.43;31.03;100169.50;5053026;28;20052;-53
2021/01/15 05:59:12;;;;;;;7.35;5.00;;;;;;;23.48;31.17;100171.72;5053361;28;20048;-56
2021/01/15 06:01:49;;;;;;;6.63;4.65;;;;;;;23.49;31.27;100178.78;5051820;28;20049;-54
2021/01/15 06:04:18;;;;;;;6.97;4.85;;;;;;;23.53;30.89;100176.66;5051856;28;20132;-49
2021/01/15 06:06:46;;;;;;;8.15;5.70;;;;;;;23.56;30.76;100184.41;5007867;28;20432;-52
2021/01/15 06:09:18;;;;;;;9.13;5.80;;;;;;;23.57;31.06;100175.44;5033115;28;20087;-53
2021/01/15 06:11:44;;;;;;;9.30;5.68;;;;;;;23.55;31.06;100185.41;5032136;28;20429;-52
2021/01/15 06:14:21;;;;;;;8.70;6.03;;;;;;;23.51;31.31;100181.31;5033056;28;20080;-55
2021/01/15 06:16:47;;;;;;;11.00;6.18;;;;;;;23.56;31.00;100173.72;5032665;28;20501;-57
2021/01/15 06:19:14;;;;;;;9.57;6.22;;;;;;;23.61;31.16;100176.81;5031721;28;20046;-58
2021/01/15 06:21:52;;;;;;;11.38;6.68;;;;;;;23.62;31.02;100157.09;5030473;28;20132;-58
2021/01/15 06:24:21;;;;;;;9.65;6.35;;;;;;;23.67;31.04;100162.88;5032146;28;20037;-59
2021/01/15 06:27:04;;;;;;;12.07;7.03;;;;;;;23.67;31.07;100162.88;5032528;28;20052;-58
2021/01/15 06:29:41;;;;;;;11.02;6.70;;;;;;;23.65;31.30;100168.34;5031127;28;20414;-57
2021/01/15 06:32:08;;;;;;;11.15;6.85;;;;;;;23.65;31.25;100167.53;5032449;28;20052;-55
2021/01/15 06:34:46;;;;;;;13.55;7.15;;;;;;;23.67;31.38;100171.72;5032331;28;20045;-50
2021/01/15 06:37:18;;;;;;;17.73;7.22;;;;;;;23.73;31.65;100172.97;5032599;28;20260;-58
2021/01/15 06:40:01;;;;;;;14.20;7.60;;;;;;;23.78;31.76;100181.44;5032573;28;20045;-58
2021/01/15 06:42:29;;;;;;;14.40;7.32;;;;;;;23.82;31.84;100174.81;4947618;28;20133;-58
2021/01/15 06:44:55;;;;;;;13.68;7.55;;;;;;;23.84;31.77;100174.66;5014873;28;20042;-55
2021/01/15 06:47:26;;;;;;;19.58;7.82;;;;;;;23.87;31.31;100180.56;5032600;28;20057;-57
2021/01/15 06:49:56;;;;;;;15.07;8.40;;;;;;;23.84;31.67;100185.38;5031181;28;20053;-58
2021/01/15 06:52:25;;;;;;;13.95;7.72;;;;;;;23.78;31.62;100197.50;4889660;28;20049;-68
2021/01/15 06:54:54;;;;;;;12.30;7.82;;;;;;;23.74;31.58;100196.09;5048493;28;20404;-58
2021/01/15 06:57:28;;;;;;;11.80;7.60;;;;;;;23.70;31.48;100192.84;5046255;28;20096;-58
2021/01/15 06:59:58;;;;;;;15.75;8.35;;;;;;;23.67;31.64;100187.78;5043454;28;20123;-56
2021/01/15 07:02:54;;;;;;;15.55;7.53;;;;;;;23.66;31.54;100186.09;5031272;28;20045;-55
2021/01/15 07:05:26;;;;;;;14.05;8.40;;;;;;;23.64;31.38;100197.94;5049164;28;20059;-57
2021/01/15 07:07:55;;;;;;;14.70;7.90;;;;;;;23.62;31.26;100200.75;5050218;28;20139;-57
2021/01/15 07:10:21;;;;;;;14.18;8.57;;;;;;;23.61;31.32;100203.59;5048652;28;20037;-55
2021/01/15 07:12:55;;;;;;;11.98;7.57;;;;;;;23.57;31.28;100215.56;5049211;28;20049;-59
2021/01/15 07:15:27;;;;;;;17.10;8.50;;;;;;;23.56;31.29;100216.53;5048269;28;20041;-57
2021/01/15 07:17:59;;;;;;;12.40;8.32;;;;;;;23.53;31.40;100219.47;5050807;28;20448;-58
2021/01/15 07:20:36;;;;;;;14.32;8.68;;;;;;;23.54;31.27;100229.22;5052597;28;20045;-60
2021/01/15 07:23:14;;;;;;;15.48;8.55;;;;;;;23.56;31.28;100227.22;5052422;28;20056;-60
2021/01/15 07:25:48;;;;;;;15.75;8.65;;;;;;;23.55;31.45;100225.53;5052226;28;20480;-59
2021/01/15 07:28:14;;;;;;;14.50;8.45;;;;;;;23.55;31.15;100223.72;5051808;28;20049;-59
2021/01/15 07:30:40;;;;;;;15.15;8.90;;;;;;;23.56;31.24;100221.88;5050620;28;20427;-60
2021/01/15 07:33:08;;;;;;;16.17;9.95;;;;;;;23.56;30.73;100227.22;5050247;28;20071;-60
2021/01/15 07:35:37;;;;;;;16.48;10.30;;;;;;;23.53;30.41;100219.47;5050537;28;20055;-59
2021/01/15 07:38:12;;;;;;;17.42;11.40;;;;;;;23.51;30.28;100221.44;5048901;28;20048;-59
2021/01/15 07:40:38;;;;;;;17.65;11.48;;;;;;;23.49;30.06;100215.38;5040595;28;20041;-56
2021/01/15 07:43:07;;;;;;;16.77;10.57;;;;;;;23.49;29.67;100218.06;5046830;28;20080;-57
2021/01/15 07:45:52;;;;;;;17.88;10.70;;;;;;;23.48;29.69;100219.91;5046774;28;20076;-59
2021/01/15 07:48:19;;;;;;;16.77;10.48;;;;;;;23.49;29.74;100223.41;5044712;28;20045;-59
2021/01/15 07:50:48;;;;;;;15.63;10.85;;;;;;;23.47;29.41;100223.56;5041624;28;20046;-56
2021/01/15 07:53:40;;;;;;;18.42;11.68;;;;;;;23.46;29.35;100213.00;5041774;28;20083;-56
2021/01/15 07:56:06;;;;;;;16.63;10.57;;;;;;;23.48;29.12;100216.38;5041893;28;20044;-55
2021/01/15 07:58:48;;;;;;;16.63;10.48;;;;;;;23.45;28.86;100222.00;5040461;28;20045;-57
2021/01/15 08:01:16;;;;;;;18.25;11.23;;;;;;;23.47;28.69;100217.38;5043074;28;20053;-56
2021/01/15 08:03:43;;;;;;;20.40;12.45;;;;;;;23.47;28.73;100222.72;5047279;28;20041;-58
2021/01/15 08:06:11;;;;;;;19.88;11.85;;;;;;;23.48;28.49;100217.22;5046702;28;20092;-58
2021/01/15 08:08:56;;;;;;;18.33;12.50;;;;;;;23.49;28.27;100226.09;5044981;28;20049;-57
2021/01/15 08:11:22;;;;;;;20.17;12.32;;;;;;;23.50;28.47;100222.44;5044967;28;20045;-56
2021/01/15 08:13:48;;;;;;;18.60;12.27;;;;;;;23.49;28.23;100221.59;5051774;28;20037;-57
2021/01/15 08:16:14;;;;;;;19.23;11.98;;;;;;;23.49;28.14;100216.22;5046668;28;20052;-57
2021/01/15 08:18:43;;;;;;;20.95;12.23;;;;;;;23.51;27.94;100218.75;5045904;28;20045;-58
2021/01/15 08:21:09;;;;;;;18.38;11.50;;;;;;;23.52;28.01;100223.13;5051042;28;20155;-58
2021/01/15 08:23:35;;;;;;;16.85;12.00;;;;;;;23.53;27.64;100223.00;5045592;28;20051;-58
2021/01/15 08:26:32;;;;;;;17.67;11.93;;;;;;;23.55;27.77;100229.06;5049945;28;20045;-57
2021/01/15 08:28:58;;;;;;;17.75;11.20;;;;;;;23.57;27.72;100231.63;5043165;28;20053;-57
2021/01/15 08:31:24;;;;;;;18.40;11.18;;;;;;;23.57;27.42;100224.44;5048568;28;20049;-56
2021/01/15 08:34:05;;;;;;;17.05;11.40;;;;;;;23.58;27.45;100225.28;5053277;28;20533;-56
2021/01/15 08:36:32;;;;;;;19.90;11.45;;;;;;;23.59;27.30;100232.31;5044804;28;20049;-55
2021/01/15 08:38:58;;;;;;;18.90;12.13;;;;;;;23.59;27.55;100233.16;5044923;28;20516;-57
2021/01/15 08:41:27;;;;;;;18.83;12.00;;;;;;;23.59;27.24;100232.31;5050308;28;20049;-57
2021/01/15 08:43:55;;;;;;;16.17;10.75;;;;;;;23.61;27.15;100227.66;5050702;28;20045;-58
2021/01/15 08:46:23;;;;;;;18.67;12.07;;;;;;;23.62;26.96;100226.69;5041835;28;20048;-56
2021/01/15 08:48:49;;;;;;;17.90;11.68;;;;;;;23.62;26.95;100224.00;5044959;28;20224;-57
2021/01/15 08:51:19;;;;;;;18.15;11.60;;;;;;;23.62;27.06;100226.69;5047751;28;20060;-60
2021/01/15 08:54:05;;;;;;;21.33;12.10;;;;;;;23.67;27.15;100235.13;5057404;28;20044;-64
2021/01/15 08:56:34;;;;;;;16.63;10.55;;;;;;;23.70;27.17;100235.69;5057637;28;20110;-71
2021/01/15 08:59:02;;;;;;;16.23;10.63;;;;;;;23.71;27.23;100225.81;5055644;28;20070;-56
2021/01/15 09:01:30;;;;;;;15.88;11.13;;;;;;;23.73;27.40;100230.03;5048851;28;20040;-59
2021/01/15 09:03:58;;;;;;;16.45;10.43;;;;;;;23.75;27.40;100227.25;5051597;28;20051;-60
2021/01/15 09:06:25;;;;;;;19.85;10.52;;;;;;;23.78;27.83;100234.97;5046948;28;20053;-58
2021/01/15 09:08:55;;;;;;;17.50;11.13;;;;;;;23.80;27.49;100235.69;5051579;28;20037;-58
2021/01/15 09:11:29;;;;;;;20.58;10.15;;;;;;;23.85;27.64;100232.56;5051410;28;20044;-59
2021/01/15 09:13:56;;;;;;;17.58;11.25;;;;;;;23.88;28.02;100243.81;5060246;28;20423;-59
2021/01/15 09:16:24;;;;;;;17.83;11.13;;;;;;;23.90;28.41;100230.28;5051254;28;20513;-59
2021/01/15 09:18:52;;;;;;;18.92;10.57;;;;;;;23.94;28.75;100226.31;5051900;28;20124;-62
2021/01/15 09:21:19;;;;;;;16.77;10.55;;;;;;;23.96;29.06;100230.56;5055268;28;20049;-62
2021/01/15 09:23:45;;;;;;;21.95;12.05;;;;;;;24.01;29.21;100228.28;5053500;28;20045;-56
2021/01/15 09:26:11;;;;;;;17.73;10.55;;;;;;;24.06;29.00;100235.03;5058016;28;20045;-51
2021/01/15 09:28:37;;;;;;;13.43;9.70;;;;;;;24.08;29.01;100230.38;5056727;28;20045;-53
2021/01/15 09:31:04;;;;;;;15.95;9.98;;;;;;;24.12;29.14;100227.25;5047265;28;20131;-49
2021/01/15 09:33:31;;;;;;;15.85;10.15;;;;;;;24.12;29.21;100223.75;5053369;28;20078;-51
2021/01/15 09:35:57;;;;;;;15.98;9.90;;;;;;;24.17;29.08;100216.97;5051139;28;20480;-49
2021/01/15 09:38:23;;;;;;;15.23;10.13;;;;;;;24.22;28.87;100213.84;5050295;28;20144;-53
2021/01/15 09:40:49;;;;;;;16.65;9.35;;;;;;;24.26;28.90;100226.78;5049679;28;20514;-51
2021/01/15 09:43:18;;;;;;;16.75;9.57;;;;;;;24.29;28.73;100214.97;5051619;28;20040;-53
2021/01/15 09:45:44;;;;;;;17.02;9.23;;;;;;;24.31;28.78;100211.16;5049776;28;20037;-50
2021/01/15 09:48:11;;;;;;;16.60;10.25;;;;;;;24.35;28.77;100213.53;5049852;28;20422;-51
2021/01/15 09:50:38;;;;;;;15.07;9.23;;;;;;;24.36;28.60;100208.00;5041953;28;20124;-52
2021/01/15 09:53:04;;;;;;;16.17;10.25;;;;;;;24.38;28.46;100207.91;5052174;28;20045;-50
2021/01/15 09:55:30;;;;;;;13.75;9.25;;;;;;;24.39;28.34;100205.06;5049217;28;20041;-48
2021/01/15 09:57:58;;;;;;;14.52;8.98;;;;;;;24.40;28.37;100206.75;5050079;28;20497;-52
2021/01/15 10:00:24;;;;;;;15.10;9.38;;;;;;;24.43;28.58;100206.44;5058923;28;20119;-49
2021/01/15 10:02:50;;;;;;;15.30;9.65;;;;;;;24.43;28.42;100211.81;5053743;28;20044;-52
2021/01/15 10:05:18;;;;;;;14.60;9.20;;;;;;;24.43;28.47;100206.44;5055893;28;20085;-52
2021/01/15 10:07:45;;;;;;;14.95;9.00;;;;;;;24.44;28.23;100213.50;5061498;28;20123;-49
2021/01/15 10:10:12;;;;;;;14.18;8.75;;;;;;;24.44;28.19;100213.50;5050587;28;20051;-52
2021/01/15 10:12:39;;;;;;;15.63;9.65;;;;;;;24.43;28.06;100206.44;5048728;28;20041;-53
2021/01/15 10:15:07;;;;;;;13.90;9.20;;;;;;;24.43;28.12;100211.81;5043781;28;20079;-49
2021/01/15 10:17:33;;;;;;;13.80;9.43;;;;;;;24.45;28.08;100209.81;5047061;28;20049;-52
2021/01/15 10:19:59;;;;;;;15.63;8.63;;;;;;;24.45;28.01;100209.81;5047599;28;20126;-53
2021/01/15 10:22:26;;;;;;;16.17;9.82;;;;;;;24.47;28.00;100202.47;5049273;28;20052;-53
2021/01/15 10:24:52;;;;;;;13.45;9.20;;;;;;;24.49;28.10;100205.84;5050032;28;20128;-51
2021/01/15 10:27:18;;;;;;;13.93;8.82;;;;;;;24.51;28.32;100211.91;5050480;28;20045;-51
2021/01/15 10:29:44;;;;;;;16.80;9.82;;;;;;;24.51;28.32;100208.38;5046386;28;20083;-52
2021/01/15 10:32:11;;;;;;;14.68;9.23;;;;;;;24.49;28.03;100208.53;5050967;28;20428;-52
2021/01/15 10:34:37;;;;;;;17.52;9.52;;;;;;;24.48;28.15;100206.84;5043510;28;20049;-52
2021/01/15 10:37:03;;;;;;;12.85;8.60;;;;;;;24.50;28.18;100198.66;5050875;28;20488;-50
2021/01/15 10:39:29;;;;;;;16.60;9.40;;;;;;;24.50;28.20;100202.16;5045687;28;20041;-58
2021/01/15 10:41:56;;;;;;;16.20;9.40;;;;;;;24.49;28.39;100200.50;5045362;28;20052;-69
2021/01/15 10:44:22;;;;;;;16.08;9.15;;;;;;;24.48;28.43;100190.75;5049238;28;20047;-50
2021/01/15 10:46:52;;;;;;;15.43;9.55;;;;;;;24.51;28.58;100186.94;5044771;28;20037;-51
2021/01/15 10:49:19;;;;;;;12.60;8.57;;;;;;;24.51;28.76;100179.75;5046835;28;20132;-51
2021/01/15 10:51:46;;;;;;;16.83;10.00;;;;;;;24.53;28.79;100184.94;5045384;28;20106;-50
2021/01/15 10:54:13;;;;;;;17.10;9.85;;;;;;;24.53;28.59;100191.16;5044263;28;20448;-49
2021/01/15 10:56:41;;;;;;;18.30;10.55;;;;;;;24.53;28.81;100191.16;5045586;28;20063;-52
2021/01/15 10:59:08;;;;;;;20.42;11.48;;;;;;;24.54;28.81;100179.44;5042769;28;20049;-49
2021/01/15 11:01:36;;;;;;;19.30;11.95;;;;;;;24.55;28.80;100170.41;5046852;28;20454;-53
2021/01/15 11:04:02;;;;;;;20.35;11.65;;;;;;;24.55;29.17;100167.72;5039243;28;20041;-60
2021/01/15 11:06:28;;;;;;;21.02;12.15;;;;;;;24.58;28.98;100163.91;5053613;28;20131;-54
2021/01/15 11:08:55;;;;;;;21.27;10.68;;;;;;;24.59;29.13;100169.13;5043325;28;20451;-58
2021/01/15 11:11:21;;;;;;;19.45;10.98;;;;;;;24.62;29.13;100144.69;5046837;28;20354;-58
2021/01/15 11:13:47;;;;;;;20.38;11.52;;;;;;;24.67;29.18;100141.56;5046462;28;20052;-58
2021/01/15 11:16:15;;;;;;;23.25;12.05;;;;;;;24.71;28.79;100144.78;5046691;28;20056;-58
2021/01/15 11:18:42;;;;;;;18.45;11.95;;;;;;;24.72;29.30;100141.94;5048348;28;20156;-55
2021/01/15 11:21:09;;;;;;;20.60;11.02;;;;;;;24.74;29.34;100137.25;5047020;28;20534;-51
2021/01/15 11:23:35;;;;;;;21.45;11.52;;;;;;;24.75;29.11;100135.44;5047974;28;20431;-64
2021/01/15 11:26:01;;;;;;;21.05;11.57;;;;;;;24.75;29.14;100138.09;5045348;28;20049;-58
2021/01/15 11:28:28;;;;;;;19.23;12.20;;;;;;;24.72;29.15;100144.63;5048058;28;20564;-56